Sunday, July 22, 2018, 12:40 AM EDT
Back to Local

KBDL, Bradley International Airport

Location: Windsor Locks, CT, United States Lat: 41.933
Local Time: 12:40 AM EDT ( 4:40 GMT) Lon: -72.683
Time Zone: US/Eastern Elev: 173 ft

Show me the last for .
Show Decoded

2018-07-21 23:51 METAR KBDL 220351Z 05007KT 10SM BKN032 BKN055 OVC065 21/15 A3004 RMK AO2 SLP171
                 T02060150 =
2018-07-21 22:51 METAR KBDL 220251Z 09010KT 10SM BKN037 OVC055 21/16 A3005 RMK AO2 SLP174
                 T02110156 58003 =
2018-07-21 21:51 METAR KBDL 220151Z 06007KT 10SM BKN044 BKN060 BKN230 22/16 A3006 RMK AO2 SLP178
                 T02170161 =
2018-07-21 20:51 METAR KBDL 220051Z 08007KT 10SM BKN055 BKN065 BKN210 BKN230 23/16 A3006 RMK AO2
                 SLP177 T02280161 =
2018-07-21 19:51 METAR KBDL 212351Z 10009KT 10SM SCT060 SCT110 BKN210 BKN250 23/16 A3006 RMK AO2
                 SLP178 T02330156 10278 20233 53001 =
2018-07-21 18:51 METAR KBDL 212251Z 12008KT 10SM FEW055 FEW085 SCT210 BKN250 24/15 A3006 RMK AO2
                 SLP177 T02390150 =
2018-07-21 17:51 METAR KBDL 212151Z 12012KT 10SM FEW080 SCT210 BKN250 26/13 A3005 RMK AO2 SLP175
                 T02560133 =
2018-07-21 16:51 METAR KBDL 212051Z 10008KT 10SM FEW050 SCT180 BKN250 26/13 A3006 RMK AO2 SLP176
                 T02610133 56012 =
2018-07-21 15:51 METAR KBDL 211951Z 13008KT 10SM FEW040 FEW180 BKN250 27/13 A3006 RMK AO2 SLP178
                 T02670128 =
2018-07-21 14:51 METAR KBDL 211851Z 09008KT 10SM FEW040 FEW180 BKN250 27/13 A3008 RMK AO2 SLP184
                 T02670133 =
2018-07-21 13:51 METAR KBDL 211751Z 09008KT 10SM FEW040 FEW180 SCT250 26/12 A3009 RMK AO2 SLP189
                 T02610122 10267 20194 58018 =
2018-07-21 12:51 METAR KBDL 211651Z VRB03KT 10SM FEW040 FEW160 SCT250 25/11 A3012 RMK AO2 SLP198
                 T02500111 =
2018-07-21 11:51 METAR KBDL 211551Z 12008KT 10SM FEW038 FEW160 SCT250 24/12 A3014 RMK AO2 SLP206
                 T02440117 =
2018-07-21 10:51 METAR KBDL 211451Z 13008KT 10SM FEW035 FEW160 SCT250 23/12 A3014 RMK AO2 SLP206
                 T02330117 50001 =
2018-07-21 09:51 METAR KBDL 211351Z 11010KT 10SM FEW032 BKN160 BKN250 22/13 A3015 RMK AO2 SLP207
                 T02220133 =
2018-07-21 08:51 METAR KBDL 211251Z VRB04KT 10SM FEW029 FEW140 BKN250 21/14 A3015 RMK AO2 SLP210
                 T02110144 =
2018-07-21 07:51 METAR KBDL 211151Z COR 04004KT 10SM SCT025 SCT250 19/16 A3014 RMK AO2 SLP205
                 T01940156 10194 20139 53000 =
2018-07-21 06:51 METAR KBDL 211051Z 02003KT 10SM FEW025 FEW200 BKN250 16/15 A3014 RMK AO2 SLP203
                 T01610150 =
2018-07-21 06:09 METAR KBDL 211009Z 01003KT 10SM SCT022 BKN250 16/15 A3014 RMK AO2 T01560150 =
2018-07-21 05:51 METAR KBDL 210951Z 00000KT 10SM BKN020 BKN250 16/14 A3014 RMK AO2 SLP206
                 T01560144 =
2018-07-21 05:40 METAR KBDL 210940Z 00000KT 10SM BKN020 BKN100 BKN250 14/13 A3014 RMK AO2
                 T01440133 =
2018-07-21 04:51 METAR KBDL 210851Z 00000KT 10SM SCT250 15/14 A3014 RMK AO2 SLP205 T01500139
                 53003 =
2018-07-21 03:51 METAR KBDL 210751Z 00000KT 10SM FEW150 FEW250 14/14 A3013 RMK AO2 SLP201
                 T01440139 =
2018-07-21 02:51 METAR KBDL 210651Z 00000KT 10SM FEW150 FEW250 16/14 A3013 RMK AO2 SLP202
                 T01560144 =
2018-07-21 01:51 METAR KBDL 210551Z 17004KT 10SM FEW250 18/15 A3013 RMK AO2 SLP201 T01780150
                 10250 20178 58003 =
2018-07-21 00:51 METAR KBDL 210451Z 16006KT 10SM FEW250 18/15 A3014 RMK AO2 SLP205 T01830150
                 402940128 =

Support USWX by starting your Amazon purchase here.